Date,TemperatureHighF,TemperatureAvgF,TemperatureLowF,DewpointHighF,DewpointAvgF,DewpointLowF,HumidityHigh,HumidityAvg,HumidityLow,PressureMaxIn,PressureMinIn,WindSpeedMaxMPH,WindSpeedAvgMPH,GustSpeedMaxMPH,PrecipitationSumIn
2013-1-1,31,16,-2,19,9,-6,91,74,53,30.54,30.39,18,3,23,0.00
2013-1-2,30,26,20,22,18,12,88,72,54,30.53,30.35,28,11,28,0.00
2013-1-3,36,19,3,18,9,-3,83,66,40,30.56,30.44,18,4,18,0.00
2013-1-4,42,21,7,25,11,-1,86,65,38,30.48,30.27,7,1,8,0.00
2013-1-5,39,24,13,23,13,6,78,65,49,30.54,30.31,25,5,25,0.00
2013-1-6,44,12,-4,21,4,-9,87,74,34,30.51,30.15,11,1,12,0.00
2013-1-7,47,34,17,24,16,9,75,50,24,30.18,29.92,18,2,18,0.00
2013-1-8,49,39,27,26,23,14,77,52,38,30.32,29.89,33,8,33,0.00
2013-1-9,58,40,22,26,22,16,82,51,21,30.38,30.08,27,6,27,0.00
2013-1-10,54,39,28,39,27,18,96,63,43,30.08,29.49,27,5,28,0.00
2013-1-11,30,19,1,29,16,-4,97,87,71,30.12,29.41,26,8,27,0.00
2013-1-12,13,3,-10,5,-3,-14,86,75,66,30.52,30.12,26,6,26,0.00
2013-1-13,15,3,-10,6,-2,-14,87,79,63,30.63,30.49,13,2,13,0.00
2013-1-14,18,-2,-17,3,-10,-22,85,72,48,30.73,30.57,11,1,11,0.00
2013-1-15,32,17,-7,21,8,-12,83,66,58,30.63,30.35,22,6,26,0.00
2013-1-16,45,34,25,24,20,15,71,57,39,30.52,30.32,24,8,26,0.00
2013-1-17,52,31,19,21,16,11,79,57,28,30.63,30.32,13,3,14,0.00
2013-1-18,56,41,24,18,13,11,71,33,17,30.32,30.07,29,6,32,0.00
2013-1-19,55,38,23,19,13,8,79,39,16,30.29,30.07,17,4,21,0.00
2013-1-20,39,26,5,22,14,1,88,63,39,30.51,30.23,25,5,25,0.00
2013-1-21,45,23,2,19,11,-2,92,64,32,30.49,30.27,13,2,13,0.00
2013-1-22,56,40,22,16,10,4,53,32,14,30.26,30.12,20,4,22,0.00
2013-1-23,53,34,18,20,12,3,84,45,16,30.33,30.17,19,3,19,0.00
2013-1-24,66,43,24,30,23,16,82,51,15,30.29,30.00,31,8,32,0.00
2013-1-25,58,35,14,32,23,11,95,67,31,30.26,30.11,17,3,18,0.00
2013-1-26,62,38,18,33,25,15,94,63,28,30.18,29.83,13,2,13,0.00
2013-1-27,59,40,20,44,31,16,96,74,32,29.83,29.67,19,2,19,0.01
2013-1-28,32,28,18,31,26,16,96,93,86,29.94,29.74,14,4,15,0.00
2013-1-29,34,23,11,25,16,7,94,75,52,30.23,29.89,28,7,28,0.00
2013-1-30,36,20,-1,23,12,-4,88,72,48,30.23,30.04,23,4,24,0.00
2013-1-31,28,24,16,22,17,8,83,73,57,30.40,30.16,19,5,21,0.00
2013-2-1,50,30,12,34,24,10,95,79,40,30.38,30.18,26,4,26,0.00
2013-2-2,49,32,14,28,21,10,90,67,28,30.42,30.35,25,5,25,0.00
2013-2-3,56,32,8,24,14,5,94,57,19,30.37,30.00,26,3,26,0.00
2013-2-4,54,37,15,22,17,9,83,49,21,30.12,29.91,23,6,23,0.00
2013-2-5,55,40,23,24,20,15,76,47,26,30.13,29.89,21,3,23,0.00
2013-2-6,54,42,30,31,24,17,90,51,25,30.16,29.83,21,4,21,0.00
2013-2-7,51,33,18,26,19,10,95,62,20,30.28,30.15,15,2,15,0.00
2013-2-8,55,33,14,25,18,8,89,56,24,30.17,29.83,18,3,18,0.00
2013-2-9,36,25,15,26,20,12,92,83,64,29.91,29.72,17,6,18,0.00
2013-2-10,31,26,12,25,19,6,93,77,62,30.27,29.75,41,17,42,0.00
2013-2-11,32,14,1,14,6,-3,85,72,43,30.40,30.27,11,2,12,0.00
2013-2-12,40,24,10,18,11,2,74,58,37,30.34,30.22,22,5,22,0.00
2013-2-13,47,36,23,30,22,15,79,58,38,30.22,29.99,34,10,34,0.00
2013-2-14,33,25,8,28,18,4,91,76,52,30.53,30.11,31,8,33,0.00
2013-2-15,29,20,9,24,15,5,92,82,66,30.59,30.47,18,3,20,0.00
2013-2-16,53,38,18,28,22,14,89,55,30,30.47,30.01,27,8,27,0.00
2013-2-17,61,40,16,27,16,6,90,44,13,30.01,29.62,29,8,30,0.00
2013-2-18,37,27,0,27,19,2,93,72,46,30.32,29.87,24,8,25,0.00
2013-2-19,43,21,-1,26,13,-5,91,73,42,30.39,30.16,23,6,24,0.01
2013-2-20,26,20,15,20,15,9,90,80,68,30.17,29.97,23,9,24,0.00
2013-2-21,24,18,12,18,15,10,91,86,71,30.16,30.06,13,3,13,0.00
2013-2-22,37,24,14,27,17,10,92,77,52,30.21,30.06,14,2,14,0.06
2013-2-23,49,32,13,28,19,6,82,62,35,30.06,29.77,18,3,18,0.03
2013-2-24,34,29,0,29,26,22,94,88,78,30.27,29.88,18,6,18,0.00
2013-2-25,36,18,0,22,11,-4,91,75,52,30.29,30.10,11,2,11,0.01
2013-2-26,38,25,-1,30,19,-4,92,79,50,30.34,30.09,29,10,29,0.00
2013-2-27,36,27,15,25,18,9,85,71,56,30.43,30.33,23,8,25,0.00
2013-2-28,40,28,0,25,18,8,80,65,50,30.46,30.34,19,5,19,0.00
2013-3-1,42,34,19,31,24,14,81,69,49,30.46,30.37,20,5,22,0.00
2013-3-2,59,46,37,34,31,28,77,59,32,30.37,29.99,21,6,22,0.00
2013-3-3,63,46,30,34,30,26,88,56,30,29.99,29.58,30,6,30,0.00
2013-3-4,40,30,19,27,15,6,84,57,30,30.42,29.71,40,15,40,0.00
2013-3-5,42,27,11,18,11,6,81,53,29,30.54,30.34,25,4,28,0.00
2013-3-6,60,40,23,27,22,15,80,52,23,30.34,29.91,22,6,28,0.00
2013-3-7,64,39,18,31,24,15,92,63,19,30.11,29.92,13,2,16,0.00
2013-3-8,46,33,19,32,27,16,95,78,56,30.13,29.84,11,2,11,0.00
2013-3-9,38,32,27,31,26,17,93,79,53,30.21,29.79,26,10,27,0.01
2013-3-10,45,30,21,22,16,9,86,58,26,30.33,30.15,27,10,27,0.00
2013-3-11,45,35,20,34,27,17,93,72,49,30.29,30.06,23,7,24,0.01
2013-3-12,44,33,25,27,22,17,87,65,37,30.45,30.28,20,6,21,0.00
2013-3-13,66,47,26,34,30,23,91,57,25,30.36,30.14,23,4,23,0.00
2013-3-14,72,54,37,34,31,26,78,47,18,30.24,29.99,23,3,23,0.00
2013-3-15,74,57,42,34,27,18,59,35,12,29.99,29.70,30,6,30,0.00
2013-3-16,55,45,29,33,30,25,87,59,38,29.94,29.75,27,7,28,0.00
2013-3-17,62,38,24,36,23,4,95,64,17,29.92,29.51,42,9,42,0.01
2013-3-18,46,32,17,22,15,10,90,53,26,30.10,29.92,27,5,27,0.00
2013-3-19,45,30,16,29,21,13,93,72,29,30.53,30.07,30,5,31,0.13
2013-3-20,58,35,8,34,18,5,92,59,20,30.53,29.82,24,6,24,0.00
2013-3-21,55,37,21,39,27,17,88,68,36,29.92,29.54,27,6,27,0.02
2013-3-22,46,33,19,26,19,11,90,61,27,30.09,29.85,23,7,24,0.00
2013-3-23,29,21,2,22,14,-3,90,75,49,30.44,30.08,23,8,24,0.00
2013-3-24,29,15,-4,17,6,-8,89,70,43,30.59,30.38,33,7,33,0.00
2013-3-25,39,21,3,16,9,-1,89,64,22,30.59,30.44,15,4,16,0.00
2013-3-26,55,37,19,34,21,10,80,55,24,30.45,30.04,17,3,17,0.00
2013-3-27,60,44,32,38,32,24,88,64,35,30.15,30.03,14,2,14,0.00
2013-3-28,66,48,31,36,28,18,88,52,17,30.10,30.00,23,4,24,0.00
2013-3-29,70,47,23,36,30,20,91,57,23,30.11,29.96,29,4,29,0.00
2013-3-30,57,43,26,41,33,24,94,71,46,30.20,30.02,22,5,24,0.00
2013-3-31,66,44,17,38,24,16,95,57,18,30.21,29.97,26,7,27,0.00
2013-4-1,55,39,19,29,24,16,89,58,34,30.24,30.09,16,4,16,0.00
2013-4-2,58,41,21,34,28,18,93,63,32,30.22,30.10,18,4,18,0.00
2013-4-3,68,55,34,38,31,18,93,45,15,30.20,29.98,26,5,27,0.00
2013-4-4,69,53,28,38,33,24,89,52,25,30.14,29.86,32,6,32,0.00
2013-4-5,75,60,43,40,30,24,66,36,16,29.86,29.51,32,6,32,0.00
2013-4-6,66,52,36,38,30,24,87,48,20,29.80,29.69,22,5,27,0.00
2013-4-7,67,54,41,42,34,25,91,50,23,29.75,29.53,31,6,31,0.07
2013-4-8,61,45,30,42,33,26,96,68,33,29.72,29.53,33,7,35,0.11
2013-4-9,16,13,11,13,10,9,91,90,87,30.56,30.25,27,12,29,0.00
2013-4-10,25,17,8,18,13,6,91,85,73,30.56,30.27,23,11,23,0.00
2013-4-11,40,31,4,33,26,0,87,81,75,30.11,30.05,23,9,23,0.02
2013-4-12,42,34,26,35,30,24,94,87,73,30.13,30.02,19,2,19,0.25
2013-4-13,48,38,27,40,34,25,96,84,68,30.10,29.51,20,4,21,0.07
2013-4-14,45,37,29,37,27,18,90,67,36,29.86,29.48,31,10,34,0.01
2013-4-15,31,28,23,26,22,17,93,79,58,30.25,29.82,18,4,19,0.00
2013-4-16,30,28,25,28,26,24,95,93,89,30.28,30.17,24,9,25,0.00
2013-4-17,29,26,22,28,24,20,94,91,87,30.37,30.20,17,7,17,0.00
2013-4-18,30,24,18,21,18,14,90,76,63,30.35,30.30,31,13,31,0.00
2013-4-19,51,39,23,36,27,16,86,64,45,30.31,30.01,24,7,24,0.00
2013-4-20,59,48,36,41,35,30,88,64,41,30.03,29.87,17,3,17,0.08
2013-4-21,60,46,32,42,37,30,94,71,37,30.04,29.93,24,4,24,0.00
2013-4-22,42,31,21,39,28,17,96,87,78,30.50,29.89,32,10,32,0.04
2013-4-23,42,28,17,22,18,15,91,69,37,30.50,30.30,19,4,20,0.00
2013-4-24,52,35,17,28,20,13,92,62,28,30.34,30.24,31,6,31,0.00
2013-4-25,70,49,22,30,20,8,92,42,9,30.30,29.86,24,5,24,0.00
2013-4-26,72,48,23,33,24,16,88,49,13,30.18,29.98,18,2,18,0.00
2013-4-27,76,56,34,33,27,19,79,38,12,30.18,29.84,23,4,23,0.00
2013-4-28,76,60,32,37,32,27,83,37,18,29.85,29.69,32,6,32,0.00
2013-4-29,80,60,34,43,32,23,88,42,12,29.79,29.39,27,4,27,0.00
2013-4-30,63,45,32,40,34,27,95,68,27,30.06,29.45,30,6,30,0.24
2013-5-1,35,30,22,31,27,18,96,90,71,30.77,30.06,15,2,15,0.08
2013-5-2,45,32,18,33,23,13,91,71,50,30.90,30.54,12,2,12,0.23
2013-5-3,60,41,21,37,28,19,94,65,29,30.54,30.14,11,1,12,0.00
2013-5-4,58,42,26,30,25,20,93,56,24,30.29,30.17,19,3,20,0.00
2013-5-5,61,44,22,34,27,20,92,58,28,30.31,30.12,14,2,14,0.00
2013-5-6,70,53,30,39,32,26,90,51,22,30.15,29.87,28,5,28,0.00
2013-5-7,70,53,40,50,42,36,92,70,40,29.88,29.75,22,4,22,0.00
2013-5-8,71,55,33,48,40,31,96,61,31,29.99,29.86,23,5,23,0.00
2013-5-9,68,53,35,46,40,32,96,65,33,30.12,29.99,18,4,21,0.00
2013-5-10,71,56,37,50,41,29,97,63,21,30.22,30.03,22,4,24,0.02
2013-5-11,69,55,36,43,37,27,84,54,34,30.33,30.08,15,2,16,0.00
2013-5-12,82,63,41,46,41,34,92,51,19,30.10,29.86,25,4,25,0.00
2013-5-13,90,69,43,51,42,32,89,45,14,29.92,29.72,18,3,18,0.00
2013-5-14,91,74,56,51,41,30,64,33,12,29.72,29.54,21,4,21,0.00
2013-5-15,81,68,54,50,45,40,80,47,25,29.74,29.60,19,6,19,0.00
2013-5-16,81,64,52,52,48,41,89,59,27,29.73,29.55,26,3,26,0.00
2013-5-17,90,71,45,57,46,25,91,49,11,29.69,29.46,22,5,24,0.00
2013-5-18,79,63,48,59,51,39,93,68,28,29.62,29.46,22,4,22,0.04
2013-5-19,59,54,48,51,48,45,92,82,60,29.71,29.61,25,10,26,0.26
2013-5-20,53,50,47,48,44,41,93,82,68,29.89,29.70,45,15,45,0.25
2013-5-21,64,54,43,43,40,32,90,62,34,29.93,29.81,34,14,36,0.00
2013-5-22,66,50,34,47,42,33,96,75,43,30.08,29.89,20,5,20,0.00
2013-5-23,64,55,46,51,47,43,93,76,56,30.10,29.92,26,12,26,0.00
2013-5-24,83,67,56,58,51,33,92,63,17,29.92,29.72,24,8,25,0.00
2013-5-25,87,68,53,62,53,42,94,65,22,29.79,29.59,19,4,19,0.00
2013-5-26,82,67,50,59,54,46,96,66,37,29.72,29.59,17,4,17,0.00
2013-5-27,82,63,43,62,53,34,97,74,27,29.61,29.47,24,3,24,0.01
2013-5-28,81,58,36,54,47,35,97,71,32,29.72,29.43,28,6,28,0.11
2013-5-29,68,56,43,56,50,41,94,81,55,29.60,29.41,24,5,27,0.43
2013-5-30,71,56,44,45,41,33,95,61,27,29.69,29.45,34,8,34,0.00
2013-5-31,65,53,40,45,39,35,95,64,35,29.95,29.64,36,11,36,0.09
2013-6-1,66,53,39,47,42,36,91,68,34,30.14,29.95,33,12,33,0.08
2013-6-2,82,61,32,48,41,30,97,55,23,30.15,29.66,23,7,23,0.00
2013-6-3,87,69,54,52,44,15,84,46,8,29.71,29.47,23,7,28,0.00
2013-6-4,74,58,44,51,43,38,90,60,32,30.10,29.72,21,6,21,0.03
2013-6-5,68,54,44,46,41,37,93,66,33,30.15,30.00,17,4,18,0.05
2013-6-6,79,59,37,51,42,35,96,60,23,30.06,29.90,22,4,24,0.00
2013-6-7,85,63,38,56,47,37,96,63,25,29.99,29.55,25,3,27,0.02
2013-6-8,76,63,48,58,48,40,93,62,31,29.86,29.48,32,8,33,0.06
2013-6-9,86,65,40,52,46,38,96,57,25,29.91,29.68,19,4,19,0.00
2013-6-10,99,76,53,59,48,35,76,42,12,29.68,29.51,29,3,34,0.00
2013-6-11,92,81,60,62,58,49,85,48,26,29.63,29.42,28,4,28,0.00
2013-6-12,88,69,50,59,51,36,95,56,22,29.93,29.63,30,5,30,0.00
2013-6-13,85,66,47,57,52,45,96,65,36,29.99,29.68,21,8,27,0.00
2013-6-14,90,75,60,56,48,32,82,43,13,29.81,29.58,35,10,36,0.02
2013-6-15,80,65,50,56,53,43,92,68,31,29.87,29.70,20,4,22,0.02
2013-6-16,92,71,52,61,50,23,97,58,9,29.89,29.72,25,6,26,0.00
2013-6-17,82,65,44,57,51,42,98,66,31,30.08,29.83,34,6,36,0.81
2013-6-18,85,67,48,59,53,43,95,66,33,29.97,29.66,28,6,29,0.09
2013-6-19,93,74,52,62,57,47,97,59,22,29.78,29.41,36,11,37,0.00
2013-6-20,87,74,56,63,49,26,96,51,12,29.63,29.43,34,6,36,0.00
2013-6-21,85,70,58,68,59,46,95,71,37,29.71,29.50,30,6,30,0.04
2013-6-22,80,64,51,62,56,49,96,76,50,29.78,29.51,25,4,25,0.32
2013-6-23,81,66,48,58,52,46,95,64,33,29.85,29.64,25,6,25,0.00
2013-6-24,94,78,63,64,52,45,81,43,19,29.64,29.36,31,9,34,0.00
2013-6-25,90,75,56,65,51,41,97,53,19,29.69,29.46,28,5,28,0.00
2013-6-26,99,76,48,56,46,38,91,46,13,29.82,29.67,19,2,19,0.00
2013-6-27,94,75,56,58,52,43,90,52,19,29.97,29.72,24,3,24,0.00
2013-6-28,91,76,54,60,54,51,93,52,28,30.00,29.84,16,3,16,0.00
2013-6-29,89,73,53,57,53,49,93,54,28,29.97,29.81,19,4,27,0.00
2013-6-30,85,69,51,53,50,46,92,57,28,30.00,29.90,17,4,17,0.00
2013-7-1,83,68,56,59,53,50,91,62,34,30.06,29.98,21,5,21,0.02
2013-7-2,86,70,55,55,50,46,90,52,27,30.06,29.88,16,4,16,0.00
2013-7-3,93,74,53,52,44,37,67,38,15,29.91,29.62,18,4,19,0.00
2013-7-4,92,75,55,53,46,37,68,39,16,29.68,29.60,26,4,26,0.00
2013-7-5,91,73,60,63,56,50,89,61,27,29.65,29.49,22,3,23,0.01
2013-7-6,92,75,58,62,56,49,94,58,25,29.69,29.54,21,3,21,0.00
2013-7-7,91,75,62,61,57,51,90,58,28,29.80,29.66,14,3,15,0.03
2013-7-8,94,78,60,62,55,47,84,50,21,29.80,29.67,21,3,23,0.00
2013-7-9,96,73,53,65,55,43,95,63,18,29.92,29.77,36,4,36,0.53
2013-7-10,90,75,61,65,61,55,94,67,35,30.00,29.73,26,7,26,0.09
2013-7-11,98,85,66,64,58,52,83,43,23,29.81,29.51,25,10,28,0.00
2013-7-12,94,77,61,65,58,52,95,58,27,29.78,29.52,21,5,22,0.70
2013-7-13,93,76,61,68,62,48,97,68,23,29.80,29.69,24,3,24,0.01
2013-7-14,77,68,64,67,62,59,95,82,66,29.99,29.74,20,5,20,0.09
2013-7-15,86,73,64,67,60,48,98,69,30,29.99,29.82,21,7,22,0.00
2013-7-18,95,81,67,64,59,54,89,52,26,29.78,29.64,18,5,19,0.05
2013-7-19,76,67,62,65,60,57,89,79,52,29.84,29.77,12,2,14,0.03
2013-7-20,89,72,56,61,56,44,96,61,27,29.80,29.62,26,5,26,0.00
2013-7-21,90,74,58,64,59,52,91,63,34,29.77,29.55,25,6,27,0.00
2013-7-22,93,77,61,63,60,52,79,58,32,29.64,29.57,14,5,15,0.00
2013-7-23,91,75,60,63,57,52,84,57,28,29.85,29.64,18,5,20,0.00
2013-7-24,87,69,58,65,60,56,96,74,40,29.96,29.75,22,5,24,0.29
2013-7-25,84,70,58,61,56,50,93,66,33,29.99,29.83,19,4,20,0.00
2013-7-26,83,68,54,59,56,49,96,69,37,30.14,29.89,23,4,26,0.00
2013-7-27,64,60,56,56,54,53,91,82,70,29.97,29.90,17,5,17,0.00
2013-7-28,76,64,57,62,58,55,94,83,61,29.92,29.73,18,6,18,0.00
2013-7-29,80,68,58,65,61,57,98,80,52,29.92,29.76,14,3,14,0.13
2013-7-30,93,74,56,62,54,46,96,56,21,30.00,29.82,21,3,21,0.00
2013-7-31,89,68,51,62,56,47,97,70,26,30.06,29.89,14,2,14,0.01
2013-8-1,94,76,58,62,58,47,90,56,28,29.95,29.58,29,5,31,0.00
2013-8-2,87,77,60,63,60,53,89,58,33,29.82,29.65,22,7,25,0.00
2013-8-3,72,68,62,67,64,61,94,88,82,29.99,29.76,21,7,22,0.00
2013-8-4,94,73,56,64,56,42,97,62,18,29.93,29.75,22,4,24,0.00
2013-8-5,89,71,54,66,57,48,93,64,35,29.83,29.69,16,2,17,0.00
2013-8-6,88,71,57,60,55,48,97,61,31,29.83,29.67,27,4,27,0.69
2013-8-7,82,66,52,65,56,52,99,74,39,29.89,29.77,24,5,26,0.00
2013-8-8,84,68,51,63,58,50,98,73,39,29.94,29.83,16,3,16,0.00
2013-8-9,87,67,50,60,52,43,94,64,23,30.00,29.88,23,4,23,0.00
2013-8-10,92,72,52,60,54,44,94,58,21,30.01,29.81,31,3,31,0.19
2013-8-11,83,68,59,64,58,52,92,72,38,29.98,29.86,24,2,27,0.34
2013-8-12,84,66,52,64,56,50,97,73,38,29.99,29.87,17,1,17,0.00
2013-8-13,84,64,47,59,52,46,96,68,33,30.10,29.92,27,3,27,0.01
2013-8-14,87,68,49,59,52,46,96,64,25,30.09,29.81,16,2,17,0.00
2013-8-15,87,69,49,56,51,44,95,60,25,29.95,29.84,18,2,18,0.00
2013-8-16,86,67,48,64,57,47,98,74,37,29.96,29.85,17,4,17,0.00
2013-8-17,93,74,57,68,61,54,97,70,29,29.94,29.71,22,4,32,0.00
2013-8-18,95,75,58,69,61,48,98,67,25,29.82,29.68,24,5,24,0.00
2013-8-19,98,77,52,61,53,45,90,50,17,29.83,29.66,17,3,17,0.00
2013-8-20,100,83,61,56,48,38,71,34,12,29.68,29.56,14,3,19,0.00
2013-8-21,91,75,65,58,55,50,79,51,27,29.87,29.65,22,4,22,0.00
2013-8-22,88,73,56,63,58,53,95,65,33,29.96,29.83,16,3,16,0.00
2013-8-23,94,76,60,66,58,52,97,60,26,29.89,29.58,17,4,19,0.00
2013-8-24,95,74,50,55,50,47,91,49,21,29.75,29.66,23,2,23,0.00
2013-8-25,97,78,54,56,52,49,88,45,20,29.85,29.73,16,2,17,0.00
2013-8-26,96,77,56,58,54,50,86,49,24,29.82,29.71,17,2,17,0.00
2013-8-27,98,79,60,63,57,52,80,51,23,29.81,29.66,16,2,16,0.01
2013-8-28,99,78,57,62,54,42,95,51,17,29.79,29.67,19,2,19,0.00
2013-8-29,98,87,64,56,51,46,69,32,19,29.83,29.76,23,5,27,0.00
2013-8-30,99,72,55,64,58,50,89,65,24,29.88,29.70,17,2,17,0.23
2013-8-31,96,77,62,60,54,44,88,51,18,29.84,29.70,21,5,21,0.00
2013-9-1,88,67,45,52,47,43,94,55,22,29.96,29.83,17,2,17,0.00
2013-9-2,95,76,57,60,53,47,82,50,23,29.93,29.69,16,4,21,0.00
2013-9-3,98,81,65,60,55,48,74,46,19,29.76,29.66,21,3,22,0.00
2013-9-4,98,76,55,64,56,51,87,57,22,29.88,29.74,25,2,25,0.35
2013-9-5,96,77,60,65,60,56,92,58,28,29.88,29.74,14,3,14,0.00
2013-9-6,98,78,63,60,56,48,88,53,19,29.80,29.68,23,3,23,0.00
2013-9-7,98,75,56,60,56,48,95,59,20,29.82,29.67,13,2,13,0.00
2013-9-8,97,75,51,58,51,40,89,49,16,29.74,29.51,15,2,15,0.00
2013-9-9,82,68,58,60,56,51,96,70,34,29.84,29.59,13,3,19,0.08
2013-9-10,72,63,58,62,58,55,97,85,63,30.03,29.81,9,1,9,0.08
2013-9-11,69,62,57,63,59,56,96,90,78,30.12,30.02,8,2,9,0.08
2013-9-12,76,66,57,61,57,52,97,76,46,30.15,30.03,21,4,21,0.00
2013-9-13,64,60,57,61,58,56,97,94,79,30.04,29.79,21,8,21,0.47
2013-9-14,82,66,53,63,58,52,98,78,40,29.82,29.68,22,2,22,0.45
2013-9-15,66,59,51,60,55,50,95,87,67,30.16,29.82,15,4,15,0.02
2013-9-16,70,59,53,58,55,52,97,86,64,30.15,29.88,20,6,20,0.00
2013-9-17,88,62,50,58,53,45,98,75,24,29.89,29.58,14,2,15,0.00
2013-9-18,88,70,53,56,50,42,90,56,22,29.64,29.49,20,2,21,0.00
2013-9-19,69,57,39,50,42,34,90,59,29,30.08,29.64,17,4,18,0.04
2013-9-20,77,53,31,48,37,24,97,64,16,30.14,29.92,11,1,11,0.00
2013-9-21,89,64,38,51,41,34,95,53,15,29.94,29.59,16,2,17,0.00
2013-9-22,88,66,46,57,50,42,94,62,22,29.59,29.30,17,2,19,0.25
2013-9-23,60,52,41,55,51,40,98,94,80,29.94,29.35,33,6,33,1.36
2013-9-24,75,56,34,52,42,33,99,67,29,30.09,29.77,19,3,21,0.01
2013-9-25,79,63,46,54,46,40,85,56,31,29.77,29.27,22,6,22,0.00
2013-9-26,73,59,42,52,46,40,93,65,40,29.63,29.41,19,5,20,0.00
2013-9-27,53,45,42,45,42,40,96,89,73,29.92,29.62,17,4,18,0.33
2013-9-28,66,56,41,39,36,31,84,50,33,30.12,30.02,21,5,21,0.00
2013-9-29,79,58,36,42,36,30,94,51,17,30.05,29.72,19,3,20,0.00
2013-9-30,82,62,38,47,40,33,87,49,20,29.77,29.53,21,4,21,0.00
2013-10-1,73,54,33,44,38,31,94,60,28,29.95,29.72,17,4,20,0.00
2013-10-2,68,54,36,49,40,34,97,63,35,29.90,29.81,18,4,18,0.00
2013-10-3,55,48,40,46,42,36,95,82,66,29.86,29.74,16,5,16,0.01
2013-10-4,44,34,30,43,33,29,97,96,92,30.25,29.79,43,14,43,0.47
2013-10-5,45,37,30,30,28,24,94,72,46,30.28,30.20,36,16,40,0.05
2013-10-6,64,49,35,41,35,28,91,62,38,30.28,30.15,24,6,24,0.00
2013-10-7,80,52,28,45,36,26,96,61,19,30.15,29.81,13,2,13,0.00
2013-10-8,79,54,35,45,38,32,93,61,19,29.81,29.62,11,1,11,0.00
2013-10-9,61,48,35,47,41,33,96,75,57,29.96,29.73,16,3,16,0.00
2013-10-10,56,45,31,49,41,30,97,87,72,29.93,29.25,20,2,20,0.12
2013-10-11,53,45,37,49,41,34,96,85,60,30.09,29.20,38,11,39,0.88
2013-10-12,60,45,29,45,37,27,95,77,50,30.26,30.09,15,4,15,0.00
2013-10-13,66,53,42,48,42,36,90,68,49,30.19,29.86,27,8,27,0.15
2013-10-14,53,44,36,52,40,30,97,88,77,30.18,29.72,31,9,31,0.06
2013-10-15,42,37,30,31,30,27,89,76,64,30.37,30.19,30,10,30,0.00
2013-10-16,55,36,20,34,26,18,96,71,28,30.29,30.06,15,2,15,0.00
2013-10-17,46,38,26,34,30,23,95,74,56,30.23,30.13,18,4,19,0.00
2013-10-18,45,34,25,35,27,21,96,80,46,30.30,30.18,24,4,24,0.03
2013-10-19,61,43,26,33,29,23,93,64,29,30.20,29.92,19,4,19,0.00
2013-10-20,52,43,31,40,34,27,93,74,46,30.16,29.92,21,5,21,0.00
2013-10-21,58,44,26,38,33,24,96,70,43,30.18,30.08,22,4,24,0.00
2013-10-22,65,49,30,40,36,28,95,63,36,30.13,30.00,19,4,21,0.00
2013-10-23,63,42,28,42,35,26,97,77,36,30.29,30.07,17,3,17,0.00
2013-10-24,58,38,21,42,32,20,97,81,49,30.38,30.26,8,1,9,0.00
2013-10-25,68,45,22,44,33,20,97,69,28,30.31,30.08,15,2,16,0.00
2013-10-26,68,45,24,41,33,22,96,69,29,30.36,30.09,9,1,9,0.00
2013-10-27,71,48,31,41,32,26,89,58,22,30.09,29.77,19,2,19,0.00
2013-10-28,45,33,30,35,30,27,96,90,66,30.25,29.92,19,5,19,0.00
2013-10-29,36,33,31,34,32,30,97,96,93,30.22,30.07,14,4,15,0.05
2013-10-30,51,36,30,41,33,27,98,91,57,30.11,29.86,17,3,18,0.05
2013-10-31,55,45,34,39,31,27,90,59,38,29.90,29.75,31,10,31,0.03
2013-11-1,49,41,37,36,32,27,90,72,44,30.14,29.88,26,10,28,0.01
2013-11-2,63,41,16,32,25,14,94,59,26,30.32,29.79,20,4,20,0.00
2013-11-3,63,41,24,38,30,21,95,69,28,29.95,29.57,24,3,24,0.33
2013-11-4,43,35,28,30,28,24,91,75,52,30.12,29.92,16,3,17,0.22
2013-11-5,37,33,27,32,30,24,96,89,74,30.25,30.09,22,5,22,0.03
2013-11-14,40,38,34,33,32,30,84,79,73,29.88,29.79,8,1,8,0.00
2013-11-15,63,46,30,36,30,24,92,59,23,29.79,29.44,17,2,17,0.00
2013-11-16,54,38,22,31,26,18,92,67,34,29.45,29.34,22,3,22,0.00
2013-11-17,47,36,28,22,17,10,67,47,23,30.18,29.94,27,5,28,0.00
2013-11-18,62,34,17,30,21,12,85,63,26,30.23,30.08,15,1,16,0.00
2013-11-19,63,39,16,33,24,13,90,60,26,30.09,29.77,16,2,18,0.00
2013-11-20,60,44,19,35,28,14,88,58,33,30.23,29.70,29,6,32,0.00
2013-11-21,19,12,1,14,9,-3,92,87,78,30.93,30.23,17,4,17,0.00
2013-11-22,26,6,-15,17,0,-19,90,79,58,31.06,30.92,11,1,11,0.00
2013-11-23,35,13,-4,17,5,-8,93,75,39,31.08,30.72,12,1,12,0.00
2013-11-24,38,24,12,27,18,8,93,80,63,30.71,30.21,18,3,18,0.00
2013-11-25,46,33,21,29,24,16,93,71,45,30.47,30.27,12,2,12,0.00
2013-11-26,41,27,17,27,21,15,95,80,52,30.57,30.43,11,1,11,0.00
2013-11-27,60,34,16,32,23,14,96,71,29,30.43,30.14,16,2,16,0.00
2013-11-28,46,29,14,32,22,12,94,77,48,30.41,30.27,14,2,14,0.00
2013-11-29,58,35,18,31,24,16,94,68,29,30.27,30.17,19,2,20,0.00
2013-11-30,56,34,20,31,23,17,93,68,32,30.29,30.18,18,3,18,0.00
2013-12-1,55,42,19,33,27,16,95,58,35,30.26,29.83,28,6,28,0.00
2013-12-2,60,50,40,32,29,27,61,46,31,29.83,29.48,33,8,33,0.00
2013-12-3,42,24,10,29,19,8,91,81,55,30.04,29.47,24,8,24,0.00
2013-12-4,10,3,-11,8,-2,-16,89,81,69,30.57,30.02,29,10,30,0.00
2013-12-5,8,-12,-26,-4,-18,-30,83,75,54,30.84,30.56,7,1,7,0.00
2013-12-6,6,-8,-24,1,-12,-29,85,80,72,30.91,30.80,12,2,12,0.00
2013-12-7,12,7,-4,6,2,-8,85,80,74,30.70,30.30,17,9,17,0.00
2013-12-8,11,3,-11,1,-4,-17,86,73,58,30.52,30.20,17,4,17,0.00
2013-12-9,23,8,-17,10,-1,-23,86,66,55,30.58,30.43,36,7,36,0.00
2013-12-10,36,25,15,22,15,7,89,66,50,30.52,30.19,30,8,30,0.00
2013-12-11,33,18,-5,23,11,-9,93,77,58,30.65,30.52,22,4,22,0.00
2013-12-12,52,27,8,29,16,1,92,67,35,30.60,30.13,11,1,11,0.00
2013-12-13,42,32,14,30,23,11,91,69,47,30.30,30.01,22,6,24,0.00
2013-12-14,42,35,27,28,24,21,89,66,46,30.37,30.24,21,5,21,0.00
2013-12-15,51,42,31,27,25,22,72,51,37,30.26,30.07,28,8,30,0.00
2013-12-16,56,47,36,26,23,21,60,39,28,30.22,30.06,30,10,30,0.00
2013-12-17,60,40,24,26,22,18,83,52,23,30.35,30.02,16,2,17,0.00
2013-12-18,63,47,32,27,23,20,75,41,21,30.02,29.71,17,3,18,0.00
2013-12-19,34,24,8,26,20,4,94,83,74,30.18,29.71,21,6,21,0.00
2013-12-20,36,17,7,23,12,4,89,80,59,30.17,29.92,10,1,10,0.00
2013-12-21,34,21,7,28,18,4,93,85,66,30.16,29.85,23,3,23,0.00
2013-12-22,35,23,8,23,17,6,91,79,54,30.52,30.14,21,4,21,0.00
2013-12-23,32,13,-11,25,9,-15,95,86,76,30.62,30.37,13,1,13,0.00
2013-12-24,44,32,20,33,26,17,96,80,59,30.44,30.15,27,6,29,0.00
2013-12-25,40,29,20,19,17,12,81,62,36,30.59,30.34,16,4,16,0.00
2013-12-26,51,36,21,21,17,11,79,47,27,30.43,30.31,17,4,17,0.00
2013-12-27,59,38,21,27,23,17,92,60,27,30.35,30.10,15,2,15,0.00
2013-12-28,52,31,12,28,19,5,93,65,32,30.47,29.95,27,8,30,0.00
2013-12-29,38,22,4,18,11,0,87,65,41,30.50,30.17,16,2,16,0.00
2013-12-30,44,33,18,22,18,14,88,56,38,30.33,30.17,28,7,28,0.00
2013-12-31,52,41,22,35,24,14,78,54,35,30.19,29.99,30,6,30,0.00
2014-1-1,41,27,13,35,25,10,95,91,80,30.45,29.99,19,3,21,0.06
2014-1-2,39,24,6,30,18,3,92,79,67,30.53,30.18,17,2,19,0.18